map of NAS home
NAS - Airport
Location
City:  Nassau, New Providence Island, New Providence, Bahamas
Name:Lynden Pindling International Airport
ICAO:MYNN
IATA:NAS

Details
Type:Airport (Aerodrome, Airfield)
Use:Public/Civil, International (customs port of entry)
Latitude:2502'21"N (25.039114)
Longitude:7727'59"W (-77.466367)
Datum:WGS 1984
Elevation:16 ft (5 m)
Variation:8.26W (WMM2015v2 magnetic declination)
-0.07 annual change
Runways:2
Longest:11107 × 150 ft (3385 × 45.5 m), paved

Time
Time Zone:UTC-5 (DST-4)
Local Time:

Weather
METAR:MYNN 041400Z 03007KT 9999 FEW020 24/20 A3003
TAF:MYNN 041100Z 0412/0512 VRB02KT 9999 BKN018
BECMG 0418/0420 36008KT SCT018

Related Locations
Nearby:
Farthest:USL: 11764 mi / 18933 km
Useless Loop, WA, AU

Find:

   beyond  
but within

Other Information
Maps:
NOTAMs:
Links:
Sources:

  
  • flag of Bahamas
  

Airport Diagram

Airport diagram for NAS

Larger airport diagram (OBSOLETE) from NGA

Sectional Chart

Flight Planning
at skyvector.com

Satellite Image

Google Maps Satellite view

 

Copyright © 2004-2019 Karl L. Swartz. All rights reserved.
The Great Circle Mapper name and logo are trademarks of the Great Circle Mapper.
All other trademarks mentioned herein belong to their respective owners.
Please see credits for attibutions and further copyright information.

  Follow gcmap on Facebook Follow gcmap on Twitter GCmap on LinkedIn

hCard Microformat

Geo Microformat